createdAt,value
2022-08-22T00:00:37.719Z,57.42
2022-08-22T00:02:06.507Z,57.71
2022-08-22T00:02:48.246Z,64.90
2022-08-22T00:02:54.635Z,63.21
2022-08-22T00:02:55.384Z,60.93
2022-08-22T00:02:57.677Z,58.75
2022-08-22T00:03:02.259Z,62.40
2022-08-22T00:03:09.333Z,61.44
2022-08-22T00:03:35.372Z,58.06
2022-08-22T00:04:47.481Z,58.14
2022-08-22T00:05:59.440Z,57.87
2022-08-22T00:07:35.969Z,57.79
2022-08-22T00:09:08.824Z,58.51
2022-08-22T00:10:13.456Z,58.33
2022-08-22T00:11:26.991Z,58.53
2022-08-22T00:12:34.340Z,59.97
2022-08-22T00:14:05.476Z,58.94
2022-08-22T00:15:42.243Z,59.09
2022-08-22T00:17:02.721Z,59.42
2022-08-22T00:18:28.553Z,59.91
2022-08-22T00:19:48.730Z,59.48
2022-08-22T00:21:02.328Z,58.77
2022-08-22T00:22:37.604Z,59.65
2022-08-22T00:23:45.118Z,60.23
2022-08-22T00:24:55.554Z,60.55
2022-08-22T00:26:22.022Z,62.24
2022-08-22T00:27:29.519Z,60.31
2022-08-22T00:28:36.924Z,60.46
2022-08-22T00:29:56.365Z,60.11
2022-08-22T00:31:07.417Z,60.75
2022-08-22T00:32:15.825Z,60.54
2022-08-22T00:33:25.859Z,60.59
2022-08-22T00:34:46.316Z,60.63
2022-08-22T00:35:53.601Z,60.51
2022-08-22T00:37:27.438Z,60.33
2022-08-22T00:38:36.369Z,60.46
2022-08-22T00:39:47.641Z,59.59
2022-08-22T00:41:04.334Z,59.84
2022-08-22T00:42:29.106Z,58.77
2022-08-22T00:44:14.858Z,59.93
2022-08-22T00:45:22.447Z,59.68
2022-08-22T00:46:42.869Z,58.89
2022-08-22T00:48:43.217Z,59.64
2022-08-22T00:50:05.906Z,60.37
2022-08-22T00:51:29.200Z,59.55
2022-08-22T00:52:45.416Z,59.84
2022-08-22T00:54:06.801Z,59.84
2022-08-22T00:55:57.445Z,59.65
2022-08-22T00:57:18.368Z,60.52
2022-08-22T00:58:38.397Z,61.22
2022-08-22T00:59:52.381Z,61.88
2022-08-22T01:00:59.944Z,61.44
2022-08-22T01:02:28.625Z,63.46
2022-08-22T01:03:48.553Z,62.27
2022-08-22T01:04:59.259Z,62.43
2022-08-22T01:06:26.209Z,62.25
2022-08-22T01:07:48.558Z,64.10
2022-08-22T01:09:09.475Z,63.48
2022-08-22T01:10:40.670Z,63.86
2022-08-22T01:12:05.322Z,63.23
2022-08-22T01:13:34.531Z,64.43
2022-08-22T01:14:54.465Z,63.92
2022-08-22T01:16:23.897Z,63.55
2022-08-22T01:17:25.403Z,65.88
2022-08-22T01:18:36.206Z,65.74
2022-08-22T01:19:49.554Z,66.44
2022-08-22T01:21:28.528Z,65.18
2022-08-22T01:22:42.355Z,67.65
2022-08-22T01:24:19.482Z,68.13
2022-08-22T01:25:57.899Z,68.73
2022-08-22T01:27:37.943Z,68.36
2022-08-22T01:28:50.722Z,68.19
2022-08-22T01:30:16.419Z,67.78
2022-08-22T01:31:21.499Z,67.86
2022-08-22T01:33:07.975Z,68.43
2022-08-22T01:34:13.147Z,68.95
2022-08-22T01:35:32.844Z,69.78
2022-08-22T01:37:04.330Z,69.28
2022-08-22T01:38:14.688Z,70.34
2022-08-22T01:39:25.727Z,70.06
2022-08-22T01:40:53.567Z,69.94
2022-08-22T01:42:42.098Z,71.56
2022-08-22T01:44:11.105Z,70.47
2022-08-22T01:45:40.593Z,70.34
2022-08-22T01:46:54.315Z,70.39
2022-08-22T01:48:06.485Z,70.69
2022-08-22T01:49:29.576Z,68.92
2022-08-22T01:50:44.702Z,69.70
2022-08-22T01:51:59.794Z,70.68
2022-08-22T01:53:24.087Z,70.82
2022-08-22T01:54:51.890Z,71.60
2022-08-22T01:56:03.128Z,72.06
2022-08-22T01:57:10.037Z,71.70
2022-08-22T01:58:26.769Z,70.82
2022-08-22T01:59:36.866Z,70.81
2022-08-22T02:01:05.755Z,70.78
2022-08-22T02:02:31.086Z,71.67
2022-08-22T02:03:40.204Z,72.08
2022-08-22T02:05:07.332Z,71.55
2022-08-22T02:06:31.861Z,72.50
2022-08-22T02:07:48.068Z,73.33
2022-08-22T02:09:08.253Z,71.91
2022-08-22T02:10:24.609Z,71.58
2022-08-22T02:11:43.654Z,71.70
2022-08-22T02:13:02.447Z,72.57
2022-08-22T02:14:18.690Z,72.61
2022-08-22T02:15:38.414Z,72.34
2022-08-22T02:16:48.094Z,71.80
2022-08-22T02:18:05.523Z,71.21
2022-08-22T02:19:10.262Z,71.05
2022-08-22T02:20:24.921Z,71.29
2022-08-22T02:21:44.748Z,71.19
2022-08-22T02:23:17.870Z,72.80
2022-08-22T02:24:41.232Z,71.37
2022-08-22T02:25:48.676Z,71.61
2022-08-22T02:27:19.497Z,71.03
2022-08-22T02:28:57.368Z,71.64
2022-08-22T02:30:18.972Z,72.62
2022-08-22T02:31:24.843Z,72.11
2022-08-22T02:32:45.842Z,72.08
2022-08-22T02:33:56.742Z,72.63
2022-08-22T02:35:01.225Z,71.79
2022-08-22T02:36:14.315Z,71.52
2022-08-22T02:37:33.652Z,72.02
2022-08-22T02:39:00.781Z,71.46
2022-08-22T02:40:12.431Z,71.16
2022-08-22T02:41:25.011Z,71.76
2022-08-22T02:42:36.866Z,71.40
2022-08-22T02:44:17.198Z,70.52
2022-08-22T02:45:41.602Z,70.92
2022-08-22T02:46:58.921Z,70.83
2022-08-22T02:48:17.748Z,70.76
2022-08-22T02:49:33.236Z,71.36
2022-08-22T02:50:44.083Z,70.83
2022-08-22T02:52:09.534Z,70.66
2022-08-22T02:53:29.469Z,71.37
2022-08-22T02:54:36.949Z,71.13
2022-08-22T02:56:00.602Z,70.40
2022-08-22T02:57:14.547Z,70.45
2022-08-22T02:58:43.190Z,70.73
2022-08-22T03:00:32.789Z,71.40
2022-08-22T03:01:42.426Z,70.49
2022-08-22T03:02:59.208Z,70.78
2022-08-22T03:04:31.700Z,70.69
2022-08-22T03:05:36.431Z,70.73
2022-08-22T03:07:00.958Z,70.75
2022-08-22T03:08:17.282Z,72.22
2022-08-22T03:09:29.617Z,71.82
2022-08-22T03:10:44.107Z,72.40
2022-08-22T03:11:59.052Z,71.82
2022-08-22T03:13:11.758Z,72.58
2022-08-22T03:14:25.910Z,72.83
2022-08-22T03:15:59.432Z,72.05
2022-08-22T03:17:00.958Z,72.72
2022-08-22T03:18:21.469Z,72.14
2022-08-22T03:19:28.803Z,72.22
2022-08-22T03:20:49.365Z,72.20
2022-08-22T03:22:03.610Z,73.62
2022-08-22T03:23:43.435Z,72.57
2022-08-22T03:24:59.810Z,73.44
2022-08-22T03:26:01.344Z,73.75
2022-08-22T03:28:10.717Z,73.35
2022-08-22T03:29:20.458Z,73.45
2022-08-22T03:30:47.523Z,73.20
2022-08-22T03:32:21.903Z,73.91
2022-08-22T03:33:29.530Z,73.76
2022-08-22T03:34:31.184Z,74.56
2022-08-22T03:35:38.611Z,73.70
2022-08-22T03:36:47.986Z,73.80
2022-08-22T03:37:57.043Z,74.41
2022-08-22T03:39:25.009Z,75.57
2022-08-22T03:40:38.095Z,74.49
2022-08-22T03:41:49.999Z,75.32
2022-08-22T03:43:28.862Z,75.35
2022-08-22T03:44:56.334Z,75.73
2022-08-22T03:46:17.468Z,75.53
2022-08-22T03:47:43.055Z,74.74
2022-08-22T03:49:03.205Z,75.12
2022-08-22T03:50:22.868Z,75.59
2022-08-22T03:51:43.157Z,75.96
2022-08-22T03:53:15.361Z,75.70
2022-08-22T03:54:52.257Z,76.03
2022-08-22T03:56:12.811Z,76.59
2022-08-22T03:57:41.467Z,76.83
2022-08-22T03:59:20.002Z,77.16
2022-08-22T04:00:56.705Z,76.72
2022-08-22T04:02:31.497Z,75.37
2022-08-22T04:04:02.630Z,75.52
2022-08-22T04:05:16.469Z,75.53
2022-08-22T04:06:39.966Z,75.69
2022-08-22T04:08:06.747Z,76.99
2022-08-22T04:09:26.518Z,76.04
2022-08-22T04:11:03.711Z,75.93
2022-08-22T04:12:39.395Z,75.46
2022-08-22T04:14:02.708Z,75.95
2022-08-22T04:15:56.504Z,75.67
2022-08-22T04:17:20.120Z,75.58
2022-08-22T04:18:51.181Z,76.17
2022-08-22T04:19:52.705Z,75.51
2022-08-22T04:21:16.478Z,75.49
2022-08-22T04:22:27.185Z,76.40
2022-08-22T04:24:16.312Z,75.67
2022-08-22T04:25:26.820Z,75.72
2022-08-22T04:26:35.542Z,75.44
2022-08-22T04:27:43.644Z,75.02
2022-08-22T04:28:51.787Z,75.74
2022-08-22T04:30:06.382Z,75.74
2022-08-22T04:31:15.065Z,75.80
2022-08-22T04:32:46.985Z,75.74
2022-08-22T04:34:07.135Z,76.61
2022-08-22T04:35:10.912Z,76.48
2022-08-22T04:36:27.516Z,75.57
2022-08-22T04:37:36.048Z,75.87
2022-08-22T04:38:48.225Z,76.08
2022-08-22T04:40:09.927Z,76.59
2022-08-22T04:41:18.260Z,75.29
2022-08-22T04:42:32.561Z,75.72
2022-08-22T04:43:41.718Z,76.85
2022-08-22T04:45:01.150Z,76.74
2022-08-22T04:46:11.253Z,75.57
2022-08-22T04:47:26.922Z,75.08
2022-08-22T04:48:40.904Z,75.66
2022-08-22T04:49:51.826Z,74.96
2022-08-22T04:51:03.231Z,74.59
2022-08-22T04:52:31.794Z,74.30
2022-08-22T04:53:45.566Z,75.21
2022-08-22T04:55:12.947Z,75.21
2022-08-22T04:56:27.034Z,75.95
2022-08-22T04:57:45.861Z,73.80
2022-08-22T04:59:16.352Z,74.06
2022-08-22T05:00:18.149Z,74.07
2022-08-22T05:01:28.060Z,74.37
2022-08-22T05:02:29.669Z,74.13
2022-08-22T05:03:35.595Z,73.69
2022-08-22T05:04:45.361Z,73.28
2022-08-22T05:05:48.299Z,73.11
2022-08-22T05:07:03.579Z,73.27
2022-08-22T05:08:08.942Z,73.46
2022-08-22T05:09:18.902Z,74.59
2022-08-22T05:10:37.926Z,73.98
2022-08-22T05:11:42.385Z,73.62
2022-08-22T05:12:54.782Z,72.97
2022-08-22T05:14:15.336Z,72.94
2022-08-22T05:15:23.103Z,73.07
2022-08-22T05:16:30.971Z,72.61
2022-08-22T05:17:33.772Z,72.94
2022-08-22T05:18:44.436Z,73.52
2022-08-22T05:19:51.450Z,73.13
2022-08-22T05:20:56.284Z,72.39
2022-08-22T05:21:58.030Z,72.35
2022-08-22T05:23:17.276Z,72.73
2022-08-22T05:24:46.201Z,74.19
2022-08-22T05:25:52.284Z,74.24
2022-08-22T05:26:59.508Z,72.97
2022-08-22T05:28:13.762Z,73.28
2022-08-22T05:29:21.877Z,73.01
2022-08-22T05:30:26.952Z,72.66
2022-08-22T05:31:36.804Z,72.24
2022-08-22T05:33:27.414Z,72.17
2022-08-22T05:34:35.858Z,72.62
2022-08-22T05:35:49.531Z,71.80
2022-08-22T05:36:58.787Z,71.89
2022-08-22T05:38:02.751Z,71.75
2022-08-22T05:39:13.087Z,71.19
2022-08-22T05:40:22.354Z,70.60
2022-08-22T05:41:27.222Z,70.27
2022-08-22T05:42:33.647Z,71.05
2022-08-22T05:43:39.252Z,71.03
2022-08-22T05:44:42.366Z,70.79
2022-08-22T05:45:47.064Z,70.17
2022-08-22T05:46:54.476Z,69.36
2022-08-22T05:48:03.146Z,70.48
2022-08-22T05:49:12.677Z,70.19
2022-08-22T05:50:19.470Z,69.94
2022-08-22T05:51:36.818Z,69.28
2022-08-22T05:53:12.470Z,68.74
2022-08-22T05:54:33.768Z,68.73
2022-08-22T05:55:57.087Z,68.19
2022-08-22T05:57:18.769Z,68.86
2022-08-22T05:59:02.168Z,68.21
2022-08-22T06:00:11.845Z,66.90
2022-08-22T06:01:31.772Z,65.65
2022-08-22T06:02:52.396Z,66.71
2022-08-22T06:03:59.977Z,65.82
2022-08-22T06:05:07.581Z,65.64
2022-08-22T06:06:16.473Z,65.23
2022-08-22T06:07:23.569Z,64.76
2022-08-22T06:08:31.692Z,64.96
2022-08-22T06:10:01.059Z,63.53
2022-08-22T06:11:09.223Z,63.36
2022-08-22T06:12:21.874Z,63.67
2022-08-22T06:13:32.473Z,62.73
2022-08-22T06:14:53.356Z,62.60
2022-08-22T06:16:07.500Z,62.08
2022-08-22T06:17:16.652Z,61.38
2022-08-22T06:18:24.192Z,61.54
2022-08-22T06:19:26.053Z,60.58
2022-08-22T06:20:46.469Z,61.63
2022-08-22T06:21:50.965Z,61.02
2022-08-22T06:22:57.601Z,60.33
2022-08-22T06:24:01.413Z,59.46
2022-08-22T06:25:14.125Z,59.21
2022-08-22T06:26:20.772Z,59.03
2022-08-22T06:27:27.008Z,58.55
2022-08-22T06:28:54.986Z,57.21
2022-08-22T06:30:00.727Z,58.37
2022-08-22T06:31:04.608Z,57.00
2022-08-22T06:32:34.138Z,55.56
2022-08-22T06:33:53.135Z,55.97
2022-08-22T06:35:03.917Z,55.20
2022-08-22T06:36:31.351Z,53.68
2022-08-22T06:37:39.419Z,52.88
2022-08-22T06:39:02.848Z,52.77
2022-08-22T06:40:07.333Z,52.21
2022-08-22T06:41:10.591Z,51.81
2022-08-22T06:42:17.052Z,53.14
2022-08-22T06:43:19.855Z,50.85
2022-08-22T06:44:25.820Z,49.61
2022-08-22T06:45:32.099Z,47.71
2022-08-22T06:46:37.711Z,46.30
2022-08-22T06:47:49.859Z,45.28
2022-08-22T06:48:55.606Z,43.25
2022-08-22T06:50:03.160Z,43.63
2022-08-22T06:51:08.260Z,42.13
2022-08-22T06:52:17.792Z,40.24
2022-08-22T06:53:25.888Z,38.95
2022-08-22T06:54:34.260Z,38.88
2022-08-22T06:55:40.421Z,39.62
2022-08-22T06:56:46.195Z,39.62
2022-08-22T06:57:56.533Z,38.70
2022-08-22T06:59:02.885Z,37.90
2022-08-22T07:00:13.015Z,36.86
2022-08-22T07:01:20.054Z,35.97
2022-08-22T07:02:26.480Z,35.14
2022-08-22T07:03:35.444Z,34.86
2022-08-22T07:04:37.308Z,34.65
2022-08-22T07:05:42.800Z,35.39
2022-08-22T07:06:50.061Z,35.70
2022-08-22T07:07:52.735Z,34.54
2022-08-22T07:08:55.768Z,34.90
2022-08-22T07:09:57.909Z,35.40
2022-08-22T07:11:30.344Z,36.16
2022-08-22T07:12:39.044Z,35.29
2022-08-22T07:13:46.841Z,35.39
2022-08-22T07:14:52.269Z,36.21
2022-08-22T07:15:57.491Z,33.92
2022-08-22T07:17:03.564Z,33.43
2022-08-22T07:18:18.871Z,33.67
2022-08-22T07:19:33.943Z,34.04
2022-08-22T07:20:45.610Z,34.15
2022-08-22T07:21:48.772Z,33.63
2022-08-22T07:22:58.944Z,33.29
2022-08-22T07:24:01.376Z,32.73
2022-08-22T07:25:13.290Z,32.10
2022-08-22T07:26:17.522Z,33.19
2022-08-22T07:27:40.382Z,34.21
2022-08-22T07:28:51.252Z,35.56
2022-08-22T07:30:06.869Z,36.10
2022-08-22T07:31:24.954Z,36.40
2022-08-22T07:32:51.842Z,35.79
2022-08-22T07:33:59.965Z,36.38
2022-08-22T07:35:08.849Z,35.60
2022-08-22T07:36:31.462Z,35.15
2022-08-22T07:37:52.367Z,35.01
2022-08-22T07:39:25.174Z,34.19
2022-08-22T07:40:35.035Z,33.59
2022-08-22T07:42:05.520Z,34.19
2022-08-22T07:43:31.862Z,33.85
2022-08-22T07:44:52.057Z,33.45
2022-08-22T07:46:28.746Z,34.25
2022-08-22T07:47:46.953Z,33.99
2022-08-22T07:49:10.522Z,34.14
2022-08-22T07:50:17.141Z,34.08
2022-08-22T07:51:33.738Z,34.09
2022-08-22T07:52:42.882Z,34.05
2022-08-22T07:54:15.495Z,34.06
2022-08-22T07:55:22.570Z,33.33
2022-08-22T07:56:28.981Z,33.59
2022-08-22T07:57:36.439Z,33.21
2022-08-22T07:58:40.521Z,32.94
2022-08-22T07:59:52.751Z,33.34
2022-08-22T08:00:55.359Z,33.30
2022-08-22T08:01:59.770Z,33.08
2022-08-22T08:03:06.651Z,32.99
2022-08-22T08:04:13.088Z,33.06
2022-08-22T08:05:15.727Z,33.17
2022-08-22T08:06:17.379Z,32.97
2022-08-22T08:07:24.196Z,33.07
2022-08-22T08:08:28.445Z,34.19
2022-08-22T08:09:33.515Z,34.47
2022-08-22T08:10:39.710Z,34.06
2022-08-22T08:11:43.558Z,34.26
2022-08-22T08:12:57.929Z,34.36
2022-08-22T08:14:07.539Z,34.60
2022-08-22T08:15:15.228Z,33.74
2022-08-22T08:16:20.053Z,33.64
2022-08-22T08:17:28.772Z,33.91
2022-08-22T08:18:35.939Z,34.62
2022-08-22T08:19:40.428Z,34.14
2022-08-22T08:20:42.331Z,33.70
2022-08-22T08:21:51.187Z,33.40
2022-08-22T08:22:54.983Z,33.50
2022-08-22T08:23:58.106Z,33.59
2022-08-22T08:25:01.187Z,34.10
2022-08-22T08:26:12.963Z,33.33
2022-08-22T08:27:37.245Z,33.29
2022-08-22T08:28:44.156Z,32.43
2022-08-22T08:29:54.545Z,33.33
2022-08-22T08:31:02.210Z,31.83
2022-08-22T08:32:05.843Z,32.53
2022-08-22T08:33:26.279Z,31.82
2022-08-22T08:34:32.351Z,31.49
2022-08-22T08:35:42.391Z,31.80
2022-08-22T08:37:20.444Z,32.55
2022-08-22T08:38:26.381Z,31.68
2022-08-22T08:39:39.418Z,32.23
2022-08-22T08:40:53.147Z,32.83
2022-08-22T08:42:03.883Z,31.96
2022-08-22T08:43:34.717Z,31.34
2022-08-22T08:44:45.861Z,30.29
2022-08-22T08:46:12.384Z,29.51
2022-08-22T08:47:22.334Z,29.05
2022-08-22T08:48:44.246Z,29.91
2022-08-22T08:50:07.220Z,29.01
2022-08-22T08:51:16.950Z,29.79
2022-08-22T08:53:12.927Z,29.53
2022-08-22T08:54:32.786Z,30.19
2022-08-22T08:56:07.029Z,29.59
2022-08-22T08:57:32.188Z,29.23
2022-08-22T08:58:33.981Z,28.63
2022-08-22T09:00:16.314Z,29.18
2022-08-22T09:01:27.804Z,30.07
2022-08-22T09:02:45.326Z,29.77
2022-08-22T09:04:19.602Z,29.86
2022-08-22T09:05:43.944Z,29.43
2022-08-22T09:07:18.736Z,29.23
2022-08-22T09:08:45.049Z,29.62
2022-08-22T09:10:22.356Z,29.48
2022-08-22T09:11:48.895Z,29.55
2022-08-22T09:13:24.984Z,29.47
2022-08-22T09:14:45.227Z,29.17
2022-08-22T09:16:24.598Z,29.20
2022-08-22T09:17:38.210Z,29.93
2022-08-22T09:19:01.293Z,29.75
2022-08-22T09:20:47.505Z,29.36
2022-08-22T09:21:52.770Z,29.63
2022-08-22T09:23:10.131Z,29.52
2022-08-22T09:24:36.760Z,31.13
2022-08-22T09:25:46.198Z,32.50
2022-08-22T09:26:54.051Z,31.88
2022-08-22T09:28:10.425Z,31.74
2022-08-22T09:29:30.520Z,31.21
2022-08-22T09:30:58.687Z,30.45
2022-08-22T09:32:13.085Z,29.36
2022-08-22T09:33:55.323Z,29.56
2022-08-22T09:35:26.652Z,28.93
2022-08-22T09:37:02.369Z,29.13
2022-08-22T09:38:10.191Z,28.60
2022-08-22T09:39:32.095Z,28.04
2022-08-22T09:41:15.016Z,27.53
2022-08-22T09:42:44.992Z,27.38
2022-08-22T09:43:59.116Z,26.82
2022-08-22T09:45:19.602Z,27.39
2022-08-22T09:46:32.150Z,26.47
2022-08-22T09:48:07.901Z,25.50
2022-08-22T09:49:17.202Z,25.66
2022-08-22T09:50:36.532Z,25.03
2022-08-22T09:52:14.433Z,25.74
2022-08-22T09:53:41.541Z,25.44
2022-08-22T09:54:54.594Z,27.50
2022-08-22T09:56:19.616Z,26.65
2022-08-22T09:57:56.252Z,25.07
2022-08-22T09:59:09.958Z,25.44
2022-08-22T10:00:22.490Z,24.60
2022-08-22T10:01:42.314Z,27.67
2022-08-22T10:02:50.355Z,27.06
2022-08-22T10:04:07.270Z,26.14
2022-08-22T10:05:40.729Z,26.67
2022-08-22T10:07:01.109Z,26.44
2022-08-22T10:08:13.656Z,26.30
2022-08-22T10:09:31.444Z,26.84
2022-08-22T10:10:57.842Z,25.84
2022-08-22T10:12:12.456Z,25.85
2022-08-22T10:13:29.557Z,25.63
2022-08-22T10:14:50.667Z,24.62
2022-08-22T10:16:01.902Z,24.22
2022-08-22T10:17:29.773Z,24.28
2022-08-22T10:18:53.299Z,24.08
2022-08-22T10:20:07.721Z,24.44
2022-08-22T10:21:37.588Z,24.10
2022-08-22T10:22:39.330Z,24.40
2022-08-22T10:23:40.773Z,24.15
2022-08-22T10:25:13.827Z,24.09
2022-08-22T10:26:43.518Z,21.97
2022-08-22T10:28:06.420Z,23.28
2022-08-22T10:29:29.929Z,24.34
2022-08-22T10:30:56.132Z,23.37
2022-08-22T10:32:13.914Z,23.85
2022-08-22T10:33:31.673Z,23.96
2022-08-22T10:34:41.673Z,23.32
2022-08-22T10:35:43.944Z,22.61
2022-08-22T10:37:14.575Z,22.41
2022-08-22T10:38:32.409Z,23.71
2022-08-22T10:39:47.445Z,21.84
2022-08-22T10:41:13.872Z,21.34
2022-08-22T10:42:24.323Z,20.85
2022-08-22T10:44:01.228Z,20.50
2022-08-22T10:45:23.620Z,20.92
2022-08-22T10:46:42.141Z,22.32
2022-08-22T10:48:19.285Z,22.00
2022-08-22T10:49:29.507Z,20.78
2022-08-22T10:50:56.134Z,21.15
2022-08-22T10:52:15.723Z,21.80
2022-08-22T10:53:51.578Z,21.77
2022-08-22T10:55:00.585Z,21.65
2022-08-22T10:56:21.482Z,20.34
2022-08-22T10:57:52.841Z,20.45
2022-08-22T10:58:58.066Z,19.23
2022-08-22T11:00:22.694Z,19.09
2022-08-22T11:01:38.426Z,19.57
2022-08-22T11:03:10.962Z,19.57
2022-08-22T11:04:43.916Z,21.23
2022-08-22T11:05:50.629Z,22.11
2022-08-22T11:07:28.912Z,23.09
2022-08-22T11:08:39.843Z,24.14
2022-08-22T11:09:53.846Z,22.04
2022-08-22T11:11:19.356Z,21.38
2022-08-22T11:12:44.497Z,21.42
2022-08-22T11:14:19.887Z,20.61
2022-08-22T11:15:46.491Z,20.89
2022-08-22T11:17:28.945Z,19.71
2022-08-22T11:18:51.435Z,18.91
2022-08-22T11:20:21.455Z,20.17
2022-08-22T11:21:51.164Z,20.23
2022-08-22T11:23:12.465Z,20.37
2022-08-22T11:24:55.365Z,21.39
2022-08-22T11:26:41.682Z,21.83
2022-08-22T11:28:11.849Z,20.63
2022-08-22T11:29:32.174Z,20.01
2022-08-22T11:30:43.772Z,21.13
2022-08-22T11:32:11.951Z,20.98
2022-08-22T11:33:21.889Z,20.63
2022-08-22T11:34:46.841Z,21.42
2022-08-22T11:36:17.593Z,22.24
2022-08-22T11:37:42.451Z,21.99
2022-08-22T11:39:13.702Z,23.86
2022-08-22T11:40:43.823Z,24.10
2022-08-22T11:41:52.338Z,23.65
2022-08-22T11:43:07.685Z,20.30
2022-08-22T11:44:17.935Z,20.96
2022-08-22T11:45:31.293Z,20.68
2022-08-22T11:46:40.281Z,19.13
2022-08-22T11:47:57.592Z,19.38
2022-08-22T11:49:18.971Z,19.48
2022-08-22T11:50:35.198Z,19.89
2022-08-22T11:52:13.979Z,21.60
2022-08-22T11:53:31.815Z,21.58
2022-08-22T11:54:47.958Z,22.15
2022-08-22T11:56:13.458Z,22.68
2022-08-22T11:57:29.417Z,21.50
2022-08-22T11:58:55.949Z,21.15
2022-08-22T12:00:32.364Z,20.16
2022-08-22T12:01:46.390Z,21.56
2022-08-22T12:02:58.771Z,21.44
2022-08-22T12:04:06.341Z,19.28
2022-08-22T12:05:26.493Z,20.55
2022-08-22T12:06:56.245Z,19.12
2022-08-22T12:08:13.379Z,19.16
2022-08-22T12:09:23.821Z,19.69
2022-08-22T12:10:32.220Z,18.84
2022-08-22T12:11:48.968Z,18.80
2022-08-22T12:12:54.132Z,19.37
2022-08-22T12:14:07.593Z,19.59
2022-08-22T12:15:23.081Z,19.94
2022-08-22T12:16:29.187Z,20.06
2022-08-22T12:18:07.906Z,20.36
2022-08-22T12:20:12.784Z,20.49
2022-08-22T12:21:24.426Z,20.21
2022-08-22T12:22:49.996Z,21.59
2022-08-22T12:24:06.026Z,22.38
2022-08-22T12:25:18.206Z,20.97
2022-08-22T12:26:40.650Z,19.75
2022-08-22T12:27:55.194Z,19.34
2022-08-22T12:29:18.998Z,19.69
2022-08-22T12:30:39.338Z,20.24
2022-08-22T12:32:07.399Z,19.69
2022-08-22T12:33:33.085Z,17.42
2022-08-22T12:34:43.798Z,18.07
2022-08-22T12:35:57.569Z,18.19
2022-08-22T12:37:15.624Z,19.23
2022-08-22T12:38:26.677Z,18.08
2022-08-22T12:39:50.889Z,17.34
2022-08-22T12:41:08.014Z,18.11
2022-08-22T12:42:29.249Z,18.75
2022-08-22T12:43:50.836Z,19.33
2022-08-22T12:45:11.111Z,18.31
2022-08-22T12:46:28.347Z,19.14
2022-08-22T12:47:36.459Z,19.63
2022-08-22T12:49:00.123Z,18.52
2022-08-22T12:50:42.121Z,19.54
2022-08-22T12:51:50.608Z,20.53
2022-08-22T12:53:42.682Z,20.38
2022-08-22T12:55:07.409Z,18.70
2022-08-22T12:56:31.711Z,19.84
2022-08-22T12:57:50.523Z,20.26
2022-08-22T12:59:02.291Z,18.71
2022-08-22T13:00:31.465Z,17.65
2022-08-22T13:01:43.569Z,18.76
2022-08-22T13:02:46.730Z,18.09
2022-08-22T13:04:01.337Z,18.19
2022-08-22T13:05:19.604Z,18.89
2022-08-22T13:06:33.887Z,19.14
2022-08-22T13:07:37.674Z,18.20
2022-08-22T13:08:44.392Z,18.94
2022-08-22T13:09:57.796Z,19.29
2022-08-22T13:11:09.889Z,19.52
2022-08-22T13:12:28.257Z,18.78
2022-08-22T13:13:45.137Z,19.31
2022-08-22T13:15:15.144Z,19.50
2022-08-22T13:16:20.879Z,19.05
2022-08-22T13:17:25.812Z,19.68
2022-08-22T13:18:35.796Z,19.85
2022-08-22T13:19:52.392Z,20.28
2022-08-22T13:20:57.307Z,20.46
2022-08-22T13:22:03.761Z,21.02
2022-08-22T13:23:22.514Z,21.18
2022-08-22T13:24:39.452Z,21.90
2022-08-22T13:26:04.203Z,23.00
2022-08-22T13:27:20.289Z,23.05
2022-08-22T13:28:24.040Z,23.55
2022-08-22T13:29:42.867Z,24.29
2022-08-22T13:30:45.401Z,24.17
2022-08-22T13:32:00.057Z,23.92
2022-08-22T13:33:25.691Z,24.83
2022-08-22T13:34:38.488Z,23.94
2022-08-22T13:35:52.422Z,23.21
2022-08-22T13:36:59.549Z,24.74
2022-08-22T13:38:12.805Z,21.72
2022-08-22T13:39:16.942Z,23.72
2022-08-22T13:40:26.956Z,22.14
2022-08-22T13:41:36.924Z,20.72
2022-08-22T13:42:54.179Z,21.60
2022-08-22T13:44:21.450Z,23.18
2022-08-22T13:45:26.714Z,23.47
2022-08-22T13:46:30.715Z,23.06
2022-08-22T13:47:47.057Z,23.21
2022-08-22T13:48:56.647Z,24.65
2022-08-22T13:50:10.121Z,22.07
2022-08-22T13:51:37.591Z,21.96
2022-08-22T13:52:53.739Z,19.71
2022-08-22T13:54:10.845Z,21.75
2022-08-22T13:55:18.122Z,21.07
2022-08-22T13:56:26.311Z,22.67
2022-08-22T13:57:31.530Z,24.63
2022-08-22T13:58:44.106Z,23.34
2022-08-22T13:59:59.467Z,23.47
2022-08-22T14:01:34.851Z,22.73
2022-08-22T14:03:00.854Z,22.51
2022-08-22T14:04:28.457Z,21.57
2022-08-22T14:05:48.163Z,22.13
2022-08-22T14:07:01.777Z,22.19
2022-08-22T14:08:26.387Z,20.97
2022-08-22T14:09:47.385Z,22.34
2022-08-22T14:10:58.001Z,22.40
2022-08-22T14:12:06.512Z,21.79
2022-08-22T14:13:10.982Z,20.90
2022-08-22T14:14:20.573Z,22.31
2022-08-22T14:15:32.092Z,21.50
2022-08-22T14:16:58.159Z,22.25
2022-08-22T14:18:14.477Z,21.28
2022-08-22T14:19:58.740Z,21.07
2022-08-22T14:21:27.921Z,21.85
2022-08-22T14:22:37.862Z,20.77
2022-08-22T14:23:40.072Z,20.09
2022-08-22T14:24:47.691Z,21.20
2022-08-22T14:25:57.721Z,19.59
2022-08-22T14:26:59.965Z,20.82
2022-08-22T14:28:40.918Z,21.20
2022-08-22T14:29:50.063Z,21.75
2022-08-22T14:30:59.476Z,21.07
2022-08-22T14:32:12.154Z,21.56
2022-08-22T14:33:22.144Z,22.08
2022-08-22T14:34:26.307Z,20.98
2022-08-22T14:35:35.170Z,21.44
2022-08-22T14:37:11.314Z,20.29
2022-08-22T14:38:29.833Z,21.46
2022-08-22T14:39:42.907Z,21.35
2022-08-22T14:40:52.027Z,22.18
2022-08-22T14:42:14.571Z,21.86
2022-08-22T14:43:29.191Z,21.73
2022-08-22T14:45:00.288Z,22.03
2022-08-22T14:46:08.017Z,21.53
2022-08-22T14:47:54.221Z,21.44
2022-08-22T14:49:29.968Z,20.74
2022-08-22T14:51:14.547Z,21.08
2022-08-22T14:52:32.019Z,20.64
2022-08-22T14:53:37.981Z,19.65
2022-08-22T14:54:40.314Z,20.11
2022-08-22T14:55:54.051Z,20.02
2022-08-22T14:56:57.209Z,19.54
2022-08-22T14:58:05.880Z,20.90
2022-08-22T14:59:12.491Z,20.68
2022-08-22T15:00:45.790Z,20.43
2022-08-22T15:02:10.061Z,19.76
2022-08-22T15:03:20.526Z,19.28
2022-08-22T15:04:27.991Z,19.57
2022-08-22T15:05:45.539Z,19.07
2022-08-22T15:07:02.241Z,21.13
2022-08-22T15:08:05.501Z,20.67
2022-08-22T15:09:15.316Z,21.00
2022-08-22T15:10:34.175Z,20.86
2022-08-22T15:11:36.595Z,20.79
2022-08-22T15:12:46.519Z,20.85
2022-08-22T15:14:20.810Z,21.33
2022-08-22T15:15:49.387Z,20.46
2022-08-22T15:16:57.550Z,21.05
2022-08-22T15:18:00.041Z,21.49
2022-08-22T15:19:03.757Z,21.52
2022-08-22T15:20:22.831Z,21.26
2022-08-22T15:21:33.190Z,21.80
2022-08-22T15:22:46.053Z,21.74
2022-08-22T15:23:48.258Z,22.82
2022-08-22T15:24:56.367Z,22.13
2022-08-22T15:26:05.026Z,22.19
2022-08-22T15:27:07.071Z,22.93
2022-08-22T15:28:20.149Z,22.42
2022-08-22T15:29:24.690Z,22.26
2022-08-22T15:30:37.932Z,22.62
2022-08-22T15:31:49.609Z,22.08
2022-08-22T15:32:51.305Z,22.28
2022-08-22T15:34:05.674Z,22.75
2022-08-22T15:35:26.371Z,22.26
2022-08-22T15:36:28.085Z,21.80
2022-08-22T15:37:33.502Z,21.18
2022-08-22T15:38:41.999Z,22.15
2022-08-22T15:40:26.965Z,23.21
2022-08-22T15:41:36.456Z,23.25
2022-08-22T15:42:48.929Z,23.08
2022-08-22T15:44:32.673Z,22.99
2022-08-22T15:45:39.532Z,22.95
2022-08-22T15:46:45.838Z,22.66
2022-08-22T15:47:53.396Z,23.52
2022-08-22T15:49:04.179Z,23.46
2022-08-22T15:50:14.708Z,22.69
2022-08-22T15:51:51.716Z,22.31
2022-08-22T15:53:08.699Z,23.43
2022-08-22T15:54:24.804Z,22.90
2022-08-22T15:55:28.236Z,23.24
2022-08-22T15:56:33.920Z,23.14
2022-08-22T15:57:41.425Z,23.26
2022-08-22T15:58:53.705Z,23.40
2022-08-22T15:59:59.054Z,23.12
2022-08-22T16:01:19.712Z,24.20
2022-08-22T16:02:28.032Z,24.20
2022-08-22T16:03:32.888Z,24.16
2022-08-22T16:04:47.425Z,24.28
2022-08-22T16:05:58.829Z,24.13
2022-08-22T16:07:02.713Z,23.54
2022-08-22T16:08:14.351Z,23.30
2022-08-22T16:09:46.724Z,24.33
2022-08-22T16:11:13.786Z,25.05
2022-08-22T16:12:30.993Z,25.65
2022-08-22T16:13:41.727Z,25.24
2022-08-22T16:14:49.990Z,24.41
2022-08-22T16:15:57.092Z,24.56
2022-08-22T16:17:04.398Z,25.15
2022-08-22T16:18:06.803Z,25.71
2022-08-22T16:19:19.110Z,25.89
2022-08-22T16:20:20.710Z,26.74
2022-08-22T16:21:22.336Z,25.22
2022-08-22T16:23:05.944Z,26.38
2022-08-22T16:24:07.614Z,25.71
2022-08-22T16:25:10.384Z,26.13